sensor_id;sensor_type;location;lat;lon;timestamp;P1;durP1;ratioP1;P2;durP2;ratioP2
36585;SDS011;22591;48.314;11.562;2022-11-03T00:00:26;20.67;;;15.48;;
36585;SDS011;22591;48.314;11.562;2022-11-03T00:02:52;23.35;;;17.08;;
36585;SDS011;22591;48.314;11.562;2022-11-03T00:05:17;26.73;;;18.20;;
36585;SDS011;22591;48.314;11.562;2022-11-03T00:08:02;19.15;;;14.60;;
36585;SDS011;22591;48.314;11.562;2022-11-03T00:10:28;17.40;;;14.35;;
36585;SDS011;22591;48.314;11.562;2022-11-03T00:12:54;14.57;;;13.07;;
36585;SDS011;22591;48.314;11.562;2022-11-03T00:15:20;21.45;;;12.60;;
36585;SDS011;22591;48.314;11.562;2022-11-03T00:17:45;19.20;;;13.13;;
36585;SDS011;22591;48.314;11.562;2022-11-03T00:20:11;16.17;;;14.40;;
36585;SDS011;22591;48.314;11.562;2022-11-03T00:22:37;16.20;;;12.65;;
36585;SDS011;22591;48.314;11.562;2022-11-03T00:25:02;17.13;;;13.25;;
36585;SDS011;22591;48.314;11.562;2022-11-03T00:27:28;16.83;;;14.10;;
36585;SDS011;22591;48.314;11.562;2022-11-03T00:29:53;11.25;;;10.25;;
36585;SDS011;22591;48.314;11.562;2022-11-03T00:32:19;16.05;;;13.40;;
36585;SDS011;22591;48.314;11.562;2022-11-03T00:34:45;21.27;;;13.07;;
36585;SDS011;22591;48.314;11.562;2022-11-03T00:37:10;17.70;;;14.18;;
36585;SDS011;22591;48.314;11.562;2022-11-03T00:39:36;23.40;;;15.55;;
36585;SDS011;22591;48.314;11.562;2022-11-03T00:42:01;18.77;;;15.38;;
36585;SDS011;22591;48.314;11.562;2022-11-03T00:44:27;23.30;;;18.63;;
36585;SDS011;22591;48.314;11.562;2022-11-03T00:46:52;25.50;;;18.30;;
36585;SDS011;22591;48.314;11.562;2022-11-03T00:49:18;24.52;;;19.65;;
36585;SDS011;22591;48.314;11.562;2022-11-03T00:51:43;24.40;;;19.45;;
36585;SDS011;22591;48.314;11.562;2022-11-03T00:54:09;28.48;;;19.73;;
36585;SDS011;22591;48.314;11.562;2022-11-03T00:56:35;29.77;;;21.13;;
36585;SDS011;22591;48.314;11.562;2022-11-03T00:59:03;24.95;;;18.85;;
36585;SDS011;22591;48.314;11.562;2022-11-03T01:01:33;23.08;;;17.90;;
36585;SDS011;22591;48.314;11.562;2022-11-03T01:04:07;28.67;;;21.67;;
36585;SDS011;22591;48.314;11.562;2022-11-03T01:06:52;26.17;;;21.02;;
36585;SDS011;22591;48.314;11.562;2022-11-03T01:09:23;27.55;;;20.67;;
36585;SDS011;22591;48.314;11.562;2022-11-03T01:11:55;24.60;;;21.30;;
36585;SDS011;22591;48.314;11.562;2022-11-03T01:14:27;32.83;;;24.65;;
36585;SDS011;22591;48.314;11.562;2022-11-03T01:16:57;40.65;;;26.23;;
36585;SDS011;22591;48.314;11.562;2022-11-03T01:19:22;29.90;;;22.55;;
36585;SDS011;22591;48.314;11.562;2022-11-03T01:21:49;27.42;;;19.88;;
36585;SDS011;22591;48.314;11.562;2022-11-03T01:24:15;29.50;;;20.45;;
36585;SDS011;22591;48.314;11.562;2022-11-03T01:30:02;20.98;;;16.25;;
36585;SDS011;22591;48.314;11.562;2022-11-03T01:32:28;23.23;;;18.80;;
36585;SDS011;22591;48.314;11.562;2022-11-03T01:34:54;29.27;;;21.65;;
36585;SDS011;22591;48.314;11.562;2022-11-03T01:37:19;31.13;;;21.80;;
36585;SDS011;22591;48.314;11.562;2022-11-03T01:39:45;31.55;;;24.00;;
36585;SDS011;22591;48.314;11.562;2022-11-03T01:42:11;35.22;;;23.60;;
36585;SDS011;22591;48.314;11.562;2022-11-03T01:44:39;38.70;;;24.67;;
36585;SDS011;22591;48.314;11.562;2022-11-03T01:47:26;34.55;;;26.30;;
36585;SDS011;22591;48.314;11.562;2022-11-03T01:49:59;36.40;;;26.00;;
36585;SDS011;22591;48.314;11.562;2022-11-03T01:55:04;40.50;;;27.23;;
36585;SDS011;22591;48.314;11.562;2022-11-03T01:57:35;32.42;;;24.25;;
36585;SDS011;22591;48.314;11.562;2022-11-03T02:00:04;39.95;;;25.45;;
36585;SDS011;22591;48.314;11.562;2022-11-03T02:02:30;46.63;;;29.33;;
36585;SDS011;22591;48.314;11.562;2022-11-03T02:04:57;35.40;;;24.90;;
36585;SDS011;22591;48.314;11.562;2022-11-03T02:07:27;36.35;;;24.75;;
36585;SDS011;22591;48.314;11.562;2022-11-03T02:09:54;44.67;;;28.98;;
36585;SDS011;22591;48.314;11.562;2022-11-03T02:12:20;41.72;;;28.90;;
36585;SDS011;22591;48.314;11.562;2022-11-03T02:14:53;43.28;;;28.80;;
36585;SDS011;22591;48.314;11.562;2022-11-03T02:17:23;34.67;;;26.02;;
36585;SDS011;22591;48.314;11.562;2022-11-03T02:19:55;35.72;;;24.48;;
36585;SDS011;22591;48.314;11.562;2022-11-03T02:22:30;36.00;;;27.60;;
36585;SDS011;22591;48.314;11.562;2022-11-03T02:27:50;39.10;;;28.30;;
36585;SDS011;22591;48.314;11.562;2022-11-03T02:30:16;40.17;;;28.05;;
36585;SDS011;22591;48.314;11.562;2022-11-03T02:32:55;43.80;;;28.27;;
36585;SDS011;22591;48.314;11.562;2022-11-03T02:35:32;56.53;;;28.10;;
36585;SDS011;22591;48.314;11.562;2022-11-03T02:38:04;58.13;;;30.40;;
36585;SDS011;22591;48.314;11.562;2022-11-03T02:40:36;41.60;;;26.27;;
36585;SDS011;22591;48.314;11.562;2022-11-03T02:43:06;28.00;;;22.27;;
36585;SDS011;22591;48.314;11.562;2022-11-03T02:45:34;50.95;;;32.63;;
36585;SDS011;22591;48.314;11.562;2022-11-03T02:48:00;46.88;;;31.23;;
36585;SDS011;22591;48.314;11.562;2022-11-03T02:50:28;57.40;;;35.13;;
36585;SDS011;22591;48.314;11.562;2022-11-03T02:52:56;43.40;;;30.48;;
36585;SDS011;22591;48.314;11.562;2022-11-03T02:58:06;45.33;;;30.92;;
36585;SDS011;22591;48.314;11.562;2022-11-03T03:00:50;49.77;;;33.33;;
36585;SDS011;22591;48.314;11.562;2022-11-03T03:03:20;69.15;;;37.33;;
36585;SDS011;22591;48.314;11.562;2022-11-03T03:05:50;59.97;;;33.97;;
36585;SDS011;22591;48.314;11.562;2022-11-03T03:08:20;56.78;;;34.17;;
36585;SDS011;22591;48.314;11.562;2022-11-03T03:10:49;59.20;;;33.08;;
36585;SDS011;22591;48.314;11.562;2022-11-03T03:13:16;62.72;;;35.22;;
36585;SDS011;22591;48.314;11.562;2022-11-03T03:21:31;62.08;;;33.25;;
36585;SDS011;22591;48.314;11.562;2022-11-03T03:24:05;58.60;;;31.40;;
36585;SDS011;22591;48.314;11.562;2022-11-03T03:26:36;57.00;;;31.90;;
36585;SDS011;22591;48.314;11.562;2022-11-03T03:29:10;59.92;;;34.47;;
36585;SDS011;22591;48.314;11.562;2022-11-03T03:31:37;54.78;;;34.17;;
36585;SDS011;22591;48.314;11.562;2022-11-03T03:34:05;67.50;;;36.33;;
36585;SDS011;22591;48.314;11.562;2022-11-03T03:36:31;62.15;;;34.90;;
36585;SDS011;22591;48.314;11.562;2022-11-03T03:38:59;65.22;;;38.20;;
36585;SDS011;22591;48.314;11.562;2022-11-03T03:41:27;63.22;;;37.22;;
36585;SDS011;22591;48.314;11.562;2022-11-03T03:43:57;65.47;;;38.63;;
36585;SDS011;22591;48.314;11.562;2022-11-03T03:46:27;72.30;;;37.92;;
36585;SDS011;22591;48.314;11.562;2022-11-03T03:48:56;57.20;;;32.95;;
36585;SDS011;22591;48.314;11.562;2022-11-03T03:51:22;58.42;;;33.72;;
36585;SDS011;22591;48.314;11.562;2022-11-03T03:53:51;58.67;;;32.28;;
36585;SDS011;22591;48.314;11.562;2022-11-03T03:56:23;72.85;;;36.92;;
36585;SDS011;22591;48.314;11.562;2022-11-03T03:58:54;49.88;;;32.78;;
36585;SDS011;22591;48.314;11.562;2022-11-03T04:01:19;52.28;;;31.38;;
36585;SDS011;22591;48.314;11.562;2022-11-03T04:03:45;67.88;;;35.75;;
36585;SDS011;22591;48.314;11.562;2022-11-03T04:06:10;262.35;;;52.97;;
36585;SDS011;22591;48.314;11.562;2022-11-03T04:08:36;299.30;;;60.80;;
36585;SDS011;22591;48.314;11.562;2022-11-03T04:11:01;318.10;;;62.63;;
36585;SDS011;22591;48.314;11.562;2022-11-03T04:13:45;198.38;;;47.60;;
36585;SDS011;22591;48.314;11.562;2022-11-03T04:16:29;150.23;;;44.50;;
36585;SDS011;22591;48.314;11.562;2022-11-03T04:19:13;558.03;;;79.82;;
36585;SDS011;22591;48.314;11.562;2022-11-03T04:21:57;462.95;;;79.13;;
36585;SDS011;22591;48.314;11.562;2022-11-03T04:24:45;518.28;;;78.80;;
36585;SDS011;22591;48.314;11.562;2022-11-03T04:29:42;578.78;;;91.68;;
36585;SDS011;22591;48.314;11.562;2022-11-03T04:32:15;541.97;;;91.72;;
36585;SDS011;22591;48.314;11.562;2022-11-03T04:34:42;567.65;;;103.15;;
36585;SDS011;22591;48.314;11.562;2022-11-03T04:37:13;625.53;;;102.80;;
36585;SDS011;22591;48.314;11.562;2022-11-03T04:39:39;499.73;;;98.68;;
36585;SDS011;22591;48.314;11.562;2022-11-03T04:42:16;326.20;;;74.40;;
36585;SDS011;22591;48.314;11.562;2022-11-03T04:44:45;278.55;;;65.70;;
36585;SDS011;22591;48.314;11.562;2022-11-03T04:47:11;548.55;;;105.38;;
36585;SDS011;22591;48.314;11.562;2022-11-03T04:49:38;332.52;;;72.15;;
36585;SDS011;22591;48.314;11.562;2022-11-03T04:52:16;213.23;;;58.50;;
36585;SDS011;22591;48.314;11.562;2022-11-03T04:54:46;655.80;;;100.65;;
36585;SDS011;22591;48.314;11.562;2022-11-03T04:57:13;658.22;;;101.53;;
36585;SDS011;22591;48.314;11.562;2022-11-03T04:59:42;178.75;;;54.70;;
36585;SDS011;22591;48.314;11.562;2022-11-03T05:02:12;317.15;;;63.63;;
36585;SDS011;22591;48.314;11.562;2022-11-03T05:04:41;209.13;;;57.72;;
36585;SDS011;22591;48.314;11.562;2022-11-03T05:07:28;630.15;;;91.70;;
36585;SDS011;22591;48.314;11.562;2022-11-03T05:09:58;542.47;;;77.38;;
36585;SDS011;22591;48.314;11.562;2022-11-03T05:12:24;323.00;;;61.25;;
36585;SDS011;22591;48.314;11.562;2022-11-03T05:14:50;261.25;;;59.22;;
36585;SDS011;22591;48.314;11.562;2022-11-03T05:19:54;300.65;;;56.15;;
36585;SDS011;22591;48.314;11.562;2022-11-03T05:22:25;309.50;;;63.33;;
36585;SDS011;22591;48.314;11.562;2022-11-03T05:24:57;235.90;;;58.10;;
36585;SDS011;22591;48.314;11.562;2022-11-03T05:27:27;213.25;;;62.03;;
36585;SDS011;22591;48.314;11.562;2022-11-03T05:29:53;238.73;;;64.07;;
36585;SDS011;22591;48.314;11.562;2022-11-03T05:32:23;233.18;;;64.10;;
36585;SDS011;22591;48.314;11.562;2022-11-03T05:34:52;196.73;;;58.30;;
36585;SDS011;22591;48.314;11.562;2022-11-03T05:37:23;217.38;;;56.15;;
36585;SDS011;22591;48.314;11.562;2022-11-03T05:40:00;174.85;;;59.22;;
36585;SDS011;22591;48.314;11.562;2022-11-03T05:43:30;186.25;;;54.58;;
36585;SDS011;22591;48.314;11.562;2022-11-03T05:45:38;264.17;;;72.65;;
36585;SDS011;22591;48.314;11.562;2022-11-03T05:48:12;422.10;;;81.00;;
36585;SDS011;22591;48.314;11.562;2022-11-03T05:50:51;191.95;;;60.28;;
36585;SDS011;22591;48.314;11.562;2022-11-03T05:55:52;179.52;;;48.35;;
36585;SDS011;22591;48.314;11.562;2022-11-03T05:58:25;238.10;;;58.08;;
36585;SDS011;22591;48.314;11.562;2022-11-03T06:00:54;154.32;;;52.38;;
36585;SDS011;22591;48.314;11.562;2022-11-03T06:03:26;174.05;;;60.92;;
36585;SDS011;22591;48.314;11.562;2022-11-03T06:05:53;155.15;;;53.38;;
36585;SDS011;22591;48.314;11.562;2022-11-03T06:08:21;159.65;;;62.20;;
36585;SDS011;22591;48.314;11.562;2022-11-03T06:10:52;151.40;;;55.80;;
36585;SDS011;22591;48.314;11.562;2022-11-03T06:13:21;167.05;;;56.20;;
36585;SDS011;22591;48.314;11.562;2022-11-03T06:16:01;130.07;;;54.63;;
36585;SDS011;22591;48.314;11.562;2022-11-03T06:18:50;119.35;;;45.92;;
36585;SDS011;22591;48.314;11.562;2022-11-03T06:21:18;181.68;;;48.05;;
36585;SDS011;22591;48.314;11.562;2022-11-03T06:23:46;127.07;;;47.50;;
36585;SDS011;22591;48.314;11.562;2022-11-03T06:26:15;154.77;;;52.35;;
36585;SDS011;22591;48.314;11.562;2022-11-03T06:28:43;201.77;;;54.67;;
36585;SDS011;22591;48.314;11.562;2022-11-03T06:34:04;148.10;;;47.90;;
36585;SDS011;22591;48.314;11.562;2022-11-03T06:37:09;160.77;;;40.65;;
36585;SDS011;22591;48.314;11.562;2022-11-03T06:39:44;137.82;;;36.85;;
36585;SDS011;22591;48.314;11.562;2022-11-03T06:42:11;329.92;;;53.72;;
36585;SDS011;22591;48.314;11.562;2022-11-03T06:44:44;310.25;;;56.28;;
36585;SDS011;22591;48.314;11.562;2022-11-03T06:47:25;291.90;;;51.50;;
36585;SDS011;22591;48.314;11.562;2022-11-03T06:49:56;297.52;;;55.45;;
36585;SDS011;22591;48.314;11.562;2022-11-03T06:52:27;121.88;;;39.13;;
36585;SDS011;22591;48.314;11.562;2022-11-03T06:57:37;74.25;;;35.78;;
36585;SDS011;22591;48.314;11.562;2022-11-03T07:02:54;97.10;;;35.42;;
36585;SDS011;22591;48.314;11.562;2022-11-03T07:05:32;117.25;;;36.60;;
36585;SDS011;22591;48.314;11.562;2022-11-03T07:08:17;326.27;;;58.33;;
36585;SDS011;22591;48.314;11.562;2022-11-03T07:10:50;283.30;;;54.78;;
36585;SDS011;22591;48.314;11.562;2022-11-03T07:13:26;281.10;;;50.03;;
36585;SDS011;22591;48.314;11.562;2022-11-03T07:15:52;350.80;;;60.53;;
36585;SDS011;22591;48.314;11.562;2022-11-03T07:18:20;357.38;;;62.88;;
36585;SDS011;22591;48.314;11.562;2022-11-03T07:20:49;324.48;;;58.58;;
36585;SDS011;22591;48.314;11.562;2022-11-03T07:23:18;319.73;;;58.97;;
36585;SDS011;22591;48.314;11.562;2022-11-03T07:25:51;371.55;;;71.25;;
36585;SDS011;22591;48.314;11.562;2022-11-03T07:28:20;359.08;;;65.18;;
36585;SDS011;22591;48.314;11.562;2022-11-03T07:30:48;295.83;;;67.55;;
36585;SDS011;22591;48.314;11.562;2022-11-03T07:33:23;238.65;;;60.10;;
36585;SDS011;22591;48.314;11.562;2022-11-03T07:35:51;244.65;;;53.30;;
36585;SDS011;22591;48.314;11.562;2022-11-03T07:38:20;421.35;;;81.45;;
36585;SDS011;22591;48.314;11.562;2022-11-03T07:40:47;318.42;;;65.30;;
36585;SDS011;22591;48.314;11.562;2022-11-03T07:45:52;335.52;;;66.45;;
36585;SDS011;22591;48.314;11.562;2022-11-03T07:48:26;209.05;;;56.80;;
36585;SDS011;22591;48.314;11.562;2022-11-03T07:51:14;268.75;;;55.05;;
36585;SDS011;22591;48.314;11.562;2022-11-03T07:53:44;358.98;;;68.15;;
36585;SDS011;22591;48.314;11.562;2022-11-03T07:56:14;304.27;;;55.70;;
36585;SDS011;22591;48.314;11.562;2022-11-03T07:59:15;327.70;;;68.38;;
36585;SDS011;22591;48.314;11.562;2022-11-03T08:01:46;267.08;;;47.83;;
36585;SDS011;22591;48.314;11.562;2022-11-03T08:04:19;533.90;;;75.38;;
36585;SDS011;22591;48.314;11.562;2022-11-03T08:06:47;536.33;;;80.35;;
36585;SDS011;22591;48.314;11.562;2022-11-03T08:09:13;520.90;;;74.80;;
36585;SDS011;22591;48.314;11.562;2022-11-03T08:11:38;644.45;;;76.85;;
36585;SDS011;22591;48.314;11.562;2022-11-03T08:14:04;393.27;;;57.50;;
36585;SDS011;22591;48.314;11.562;2022-11-03T08:16:30;231.40;;;45.85;;
36585;SDS011;22591;48.314;11.562;2022-11-03T08:18:55;581.90;;;78.30;;
36585;SDS011;22591;48.314;11.562;2022-11-03T08:21:21;163.85;;;37.33;;
36585;SDS011;22591;48.314;11.562;2022-11-03T08:23:46;695.30;;;89.22;;
36585;SDS011;22591;48.314;11.562;2022-11-03T08:26:12;770.30;;;93.00;;
36585;SDS011;22591;48.314;11.562;2022-11-03T08:28:38;707.40;;;90.05;;
36585;SDS011;22591;48.314;11.562;2022-11-03T08:31:03;673.42;;;94.43;;
36585;SDS011;22591;48.314;11.562;2022-11-03T08:33:30;522.50;;;68.78;;
36585;SDS011;22591;48.314;11.562;2022-11-03T08:35:56;572.75;;;72.45;;
36585;SDS011;22591;48.314;11.562;2022-11-03T08:38:22;498.77;;;59.38;;
36585;SDS011;22591;48.314;11.562;2022-11-03T08:40:48;572.90;;;69.93;;
36585;SDS011;22591;48.314;11.562;2022-11-03T08:43:14;452.23;;;59.45;;
36585;SDS011;22591;48.314;11.562;2022-11-03T08:45:39;270.58;;;42.33;;
36585;SDS011;22591;48.314;11.562;2022-11-03T08:48:05;190.55;;;31.25;;
36585;SDS011;22591;48.314;11.562;2022-11-03T08:50:30;149.95;;;32.00;;
36585;SDS011;22591;48.314;11.562;2022-11-03T08:52:56;275.45;;;36.92;;
36585;SDS011;22591;48.314;11.562;2022-11-03T08:55:22;343.17;;;49.35;;
36585;SDS011;22591;48.314;11.562;2022-11-03T08:57:47;255.50;;;34.85;;
36585;SDS011;22591;48.314;11.562;2022-11-03T09:00:13;687.30;;;81.95;;
36585;SDS011;22591;48.314;11.562;2022-11-03T09:02:41;27.33;;;15.48;;
36585;SDS011;22591;48.314;11.562;2022-11-03T09:05:07;167.05;;;26.27;;
36585;SDS011;22591;48.314;11.562;2022-11-03T09:07:33;64.85;;;19.35;;
36585;SDS011;22591;48.314;11.562;2022-11-03T09:09:59;51.42;;;14.30;;
36585;SDS011;22591;48.314;11.562;2022-11-03T09:12:24;56.60;;;18.25;;
36585;SDS011;22591;48.314;11.562;2022-11-03T09:14:50;148.70;;;20.67;;
36585;SDS011;22591;48.314;11.562;2022-11-03T09:17:15;104.63;;;16.67;;
36585;SDS011;22591;48.314;11.562;2022-11-03T09:19:41;74.40;;;18.70;;
36585;SDS011;22591;48.314;11.562;2022-11-03T09:22:07;81.30;;;16.55;;
36585;SDS011;22591;48.314;11.562;2022-11-03T09:24:32;318.45;;;36.67;;
36585;SDS011;22591;48.314;11.562;2022-11-03T09:26:58;123.38;;;17.45;;
36585;SDS011;22591;48.314;11.562;2022-11-03T09:29:24;483.27;;;54.47;;
36585;SDS011;22591;48.314;11.562;2022-11-03T09:31:49;146.63;;;21.95;;
36585;SDS011;22591;48.314;11.562;2022-11-03T09:34:15;67.68;;;14.63;;
36585;SDS011;22591;48.314;11.562;2022-11-03T09:36:40;63.47;;;16.40;;
36585;SDS011;22591;48.314;11.562;2022-11-03T09:39:06;24.77;;;12.07;;
36585;SDS011;22591;48.314;11.562;2022-11-03T09:41:31;72.00;;;15.20;;
36585;SDS011;22591;48.314;11.562;2022-11-03T09:43:58;88.63;;;18.50;;
36585;SDS011;22591;48.314;11.562;2022-11-03T09:46:25;284.95;;;39.05;;
36585;SDS011;22591;48.314;11.562;2022-11-03T09:48:53;197.07;;;23.75;;
36585;SDS011;22591;48.314;11.562;2022-11-03T09:51:20;44.30;;;16.50;;
36585;SDS011;22591;48.314;11.562;2022-11-03T09:53:47;29.40;;;17.27;;
36585;SDS011;22591;48.314;11.562;2022-11-03T09:56:14;35.70;;;15.35;;
36585;SDS011;22591;48.314;11.562;2022-11-03T09:58:43;29.63;;;13.85;;
36585;SDS011;22591;48.314;11.562;2022-11-03T10:01:09;37.65;;;12.75;;
36585;SDS011;22591;48.314;11.562;2022-11-03T10:03:35;24.60;;;11.02;;
36585;SDS011;22591;48.314;11.562;2022-11-03T10:06:03;164.52;;;22.35;;
36585;SDS011;22591;48.314;11.562;2022-11-03T10:08:29;60.85;;;15.82;;
36585;SDS011;22591;48.314;11.562;2022-11-03T10:10:56;112.25;;;17.08;;
36585;SDS011;22591;48.314;11.562;2022-11-03T10:13:28;19.95;;;12.15;;
36585;SDS011;22591;48.314;11.562;2022-11-03T10:15:54;43.67;;;13.27;;
36585;SDS011;22591;48.314;11.562;2022-11-03T10:18:21;18.92;;;11.35;;
36585;SDS011;22591;48.314;11.562;2022-11-03T10:20:47;15.63;;;11.25;;
36585;SDS011;22591;48.314;11.562;2022-11-03T10:23:13;14.50;;;12.35;;
36585;SDS011;22591;48.314;11.562;2022-11-03T10:25:43;14.80;;;13.30;;
36585;SDS011;22591;48.314;11.562;2022-11-03T10:28:13;16.45;;;11.60;;
36585;SDS011;22591;48.314;11.562;2022-11-03T10:33:36;14.02;;;10.43;;
36585;SDS011;22591;48.314;11.562;2022-11-03T10:38:40;12.70;;;11.30;;
36585;SDS011;22591;48.314;11.562;2022-11-03T10:44:31;11.50;;;10.50;;
36585;SDS011;22591;48.314;11.562;2022-11-03T10:46:34;13.27;;;11.98;;
36585;SDS011;22591;48.314;11.562;2022-11-03T10:49:02;13.48;;;11.95;;
36585;SDS011;22591;48.314;11.562;2022-11-03T10:51:33;9.57;;;8.88;;
36585;SDS011;22591;48.314;11.562;2022-11-03T10:54:03;11.43;;;10.45;;
36585;SDS011;22591;48.314;11.562;2022-11-03T10:56:30;12.25;;;11.10;;
36585;SDS011;22591;48.314;11.562;2022-11-03T10:58:57;12.23;;;11.23;;
36585;SDS011;22591;48.314;11.562;2022-11-03T11:01:24;14.70;;;11.65;;
36585;SDS011;22591;48.314;11.562;2022-11-03T11:03:50;11.48;;;10.48;;
36585;SDS011;22591;48.314;11.562;2022-11-03T11:08:52;10.73;;;9.65;;
36585;SDS011;22591;48.314;11.562;2022-11-03T11:11:24;14.30;;;12.82;;
36585;SDS011;22591;48.314;11.562;2022-11-03T11:19:22;20.08;;;12.73;;
36585;SDS011;22591;48.314;11.562;2022-11-03T11:35:10;13.85;;;12.48;;
36585;SDS011;22591;48.314;11.562;2022-11-03T11:41:05;10.07;;;9.35;;
36585;SDS011;22591;48.314;11.562;2022-11-03T11:43:31;14.70;;;13.20;;
36585;SDS011;22591;48.314;11.562;2022-11-03T11:49:00;14.00;;;12.45;;
36585;SDS011;22591;48.314;11.562;2022-11-03T11:51:27;12.80;;;11.60;;
36585;SDS011;22591;48.314;11.562;2022-11-03T11:53:56;12.82;;;11.73;;
36585;SDS011;22591;48.314;11.562;2022-11-03T11:56:22;11.57;;;10.48;;
36585;SDS011;22591;48.314;11.562;2022-11-03T11:58:48;12.07;;;11.00;;
36585;SDS011;22591;48.314;11.562;2022-11-03T12:01:31;12.50;;;11.38;;
36585;SDS011;22591;48.314;11.562;2022-11-03T12:04:20;13.63;;;12.32;;
36585;SDS011;22591;48.314;11.562;2022-11-03T12:06:46;12.35;;;11.30;;
36585;SDS011;22591;48.314;11.562;2022-11-03T12:11:48;13.18;;;11.82;;
36585;SDS011;22591;48.314;11.562;2022-11-03T12:14:24;10.73;;;9.73;;
36585;SDS011;22591;48.314;11.562;2022-11-03T12:16:57;14.65;;;13.25;;
36585;SDS011;22591;48.314;11.562;2022-11-03T12:19:46;13.63;;;12.32;;
36585;SDS011;22591;48.314;11.562;2022-11-03T12:29:49;11.18;;;9.60;;
36585;SDS011;22591;48.314;11.562;2022-11-03T12:32:15;14.00;;;12.45;;
36585;SDS011;22591;48.314;11.562;2022-11-03T12:34:41;12.27;;;11.13;;
36585;SDS011;22591;48.314;11.562;2022-11-03T12:37:07;11.48;;;10.30;;
36585;SDS011;22591;48.314;11.562;2022-11-03T12:39:33;11.95;;;10.95;;
36585;SDS011;22591;48.314;11.562;2022-11-03T12:41:58;11.50;;;10.50;;
36585;SDS011;22591;48.314;11.562;2022-11-03T12:44:24;10.10;;;9.07;;
36585;SDS011;22591;48.314;11.562;2022-11-03T12:46:49;10.68;;;9.57;;
36585;SDS011;22591;48.314;11.562;2022-11-03T12:49:15;10.43;;;9.63;;
36585;SDS011;22591;48.314;11.562;2022-11-03T12:51:41;10.55;;;9.60;;
36585;SDS011;22591;48.314;11.562;2022-11-03T12:54:06;11.27;;;10.30;;
36585;SDS011;22591;48.314;11.562;2022-11-03T12:56:32;11.35;;;10.20;;
36585;SDS011;22591;48.314;11.562;2022-11-03T12:58:57;12.57;;;11.32;;
36585;SDS011;22591;48.314;11.562;2022-11-03T13:01:23;12.32;;;11.32;;
36585;SDS011;22591;48.314;11.562;2022-11-03T13:03:48;11.88;;;10.95;;
36585;SDS011;22591;48.314;11.562;2022-11-03T13:06:14;11.65;;;10.60;;
36585;SDS011;22591;48.314;11.562;2022-11-03T13:08:40;13.15;;;11.93;;
36585;SDS011;22591;48.314;11.562;2022-11-03T13:11:05;13.38;;;12.32;;
36585;SDS011;22591;48.314;11.562;2022-11-03T13:13:50;11.95;;;10.75;;
36585;SDS011;22591;48.314;11.562;2022-11-03T13:16:16;11.80;;;10.68;;
36585;SDS011;22591;48.314;11.562;2022-11-03T13:18:41;10.48;;;9.52;;
36585;SDS011;22591;48.314;11.562;2022-11-03T13:21:07;12.23;;;11.10;;
36585;SDS011;22591;48.314;11.562;2022-11-03T13:23:32;12.32;;;11.32;;
36585;SDS011;22591;48.314;11.562;2022-11-03T13:25:58;11.93;;;10.82;;
36585;SDS011;22591;48.314;11.562;2022-11-03T13:28:23;16.83;;;12.65;;
36585;SDS011;22591;48.314;11.562;2022-11-03T13:30:49;12.65;;;11.55;;
36585;SDS011;22591;48.314;11.562;2022-11-03T13:33:15;11.65;;;10.65;;
36585;SDS011;22591;48.314;11.562;2022-11-03T13:35:40;13.98;;;12.43;;
36585;SDS011;22591;48.314;11.562;2022-11-03T13:38:06;12.70;;;11.50;;
36585;SDS011;22591;48.314;11.562;2022-11-03T13:40:31;12.35;;;11.25;;
36585;SDS011;22591;48.314;11.562;2022-11-03T13:42:57;11.85;;;10.75;;
36585;SDS011;22591;48.314;11.562;2022-11-03T13:45:22;13.68;;;12.00;;
36585;SDS011;22591;48.314;11.562;2022-11-03T13:47:48;14.75;;;11.00;;
36585;SDS011;22591;48.314;11.562;2022-11-03T13:50:13;13.95;;;12.35;;
36585;SDS011;22591;48.314;11.562;2022-11-03T13:52:39;15.23;;;13.70;;
36585;SDS011;22591;48.314;11.562;2022-11-03T13:55:04;15.73;;;13.98;;
36585;SDS011;22591;48.314;11.562;2022-11-03T13:57:30;14.75;;;13.32;;
36585;SDS011;22591;48.314;11.562;2022-11-03T13:59:56;17.60;;;15.82;;
36585;SDS011;22591;48.314;11.562;2022-11-03T14:02:22;16.90;;;15.20;;
36585;SDS011;22591;48.314;11.562;2022-11-03T14:04:47;18.45;;;16.65;;
36585;SDS011;22591;48.314;11.562;2022-11-03T14:07:13;27.25;;;22.27;;
36585;SDS011;22591;48.314;11.562;2022-11-03T14:09:39;29.83;;;26.02;;
36585;SDS011;22591;48.314;11.562;2022-11-03T14:12:04;30.40;;;25.98;;
36585;SDS011;22591;48.314;11.562;2022-11-03T14:14:49;31.15;;;24.35;;
36585;SDS011;22591;48.314;11.562;2022-11-03T14:17:14;28.10;;;24.60;;
36585;SDS011;22591;48.314;11.562;2022-11-03T14:19:40;29.95;;;25.73;;
36585;SDS011;22591;48.314;11.562;2022-11-03T14:22:05;33.75;;;29.42;;
36585;SDS011;22591;48.314;11.562;2022-11-03T14:24:31;31.17;;;27.80;;
36585;SDS011;22591;48.314;11.562;2022-11-03T14:26:56;38.70;;;32.63;;
36585;SDS011;22591;48.314;11.562;2022-11-03T14:29:22;33.55;;;29.23;;
36585;SDS011;22591;48.314;11.562;2022-11-03T14:31:47;30.48;;;27.23;;
36585;SDS011;22591;48.314;11.562;2022-11-03T14:34:13;34.30;;;29.45;;
36585;SDS011;22591;48.314;11.562;2022-11-03T14:36:38;32.70;;;26.92;;
36585;SDS011;22591;48.314;11.562;2022-11-03T14:39:04;28.52;;;25.52;;
36585;SDS011;22591;48.314;11.562;2022-11-03T14:41:29;44.63;;;32.88;;
36585;SDS011;22591;48.314;11.562;2022-11-03T14:44:14;34.33;;;29.20;;
36585;SDS011;22591;48.314;11.562;2022-11-03T14:46:39;30.23;;;27.17;;
36585;SDS011;22591;48.314;11.562;2022-11-03T14:49:05;32.95;;;29.45;;
36585;SDS011;22591;48.314;11.562;2022-11-03T14:51:30;31.42;;;28.02;;
36585;SDS011;22591;48.314;11.562;2022-11-03T14:53:56;36.13;;;31.30;;
36585;SDS011;22591;48.314;11.562;2022-11-03T14:56:22;33.65;;;30.02;;
36585;SDS011;22591;48.314;11.562;2022-11-03T14:58:48;36.55;;;32.65;;
36585;SDS011;22591;48.314;11.562;2022-11-03T15:01:14;43.00;;;35.25;;
36585;SDS011;22591;48.314;11.562;2022-11-03T15:03:41;48.17;;;40.70;;
36585;SDS011;22591;48.314;11.562;2022-11-03T15:06:07;38.40;;;33.17;;
36585;SDS011;22591;48.314;11.562;2022-11-03T15:08:33;45.53;;;38.08;;
36585;SDS011;22591;48.314;11.562;2022-11-03T15:10:58;47.50;;;39.92;;
36585;SDS011;22591;48.314;11.562;2022-11-03T15:13:24;42.17;;;37.10;;
36585;SDS011;22591;48.314;11.562;2022-11-03T15:15:50;38.45;;;33.53;;
36585;SDS011;22591;48.314;11.562;2022-11-03T15:18:15;39.22;;;34.10;;
36585;SDS011;22591;48.314;11.562;2022-11-03T15:20:41;39.90;;;35.45;;
36585;SDS011;22591;48.314;11.562;2022-11-03T15:23:07;49.33;;;36.90;;
36585;SDS011;22591;48.314;11.562;2022-11-03T15:25:33;47.22;;;38.75;;
36585;SDS011;22591;48.314;11.562;2022-11-03T15:27:58;49.30;;;39.80;;
36585;SDS011;22591;48.314;11.562;2022-11-03T15:30:24;42.13;;;36.55;;
36585;SDS011;22591;48.314;11.562;2022-11-03T15:32:50;43.47;;;36.25;;
36585;SDS011;22591;48.314;11.562;2022-11-03T15:35:16;43.20;;;35.83;;